createdAt,value
2018-09-08T00:01:14.398Z,13.70
2018-09-08T00:03:43.124Z,13.70
2018-09-08T00:06:11.849Z,13.70
2018-09-08T00:08:40.645Z,13.70
2018-09-08T00:11:09.373Z,13.70
2018-09-08T00:13:38.074Z,13.60
2018-09-08T00:16:12.170Z,13.60
2018-09-08T00:18:46.262Z,13.60
2018-09-08T00:21:20.228Z,13.60
2018-09-08T00:23:54.216Z,13.60
2018-09-08T00:26:29.026Z,13.50
2018-09-08T00:29:04.534Z,13.50
2018-09-08T00:31:33.214Z,13.40
2018-09-08T00:34:01.910Z,13.40
2018-09-08T00:36:30.675Z,13.40
2018-09-08T00:38:59.387Z,13.40
2018-09-08T00:41:28.134Z,13.30
2018-09-08T00:43:56.752Z,13.30
2018-09-08T00:46:25.439Z,13.30
2018-09-08T00:48:54.102Z,13.20
2018-09-08T00:51:22.804Z,13.20
2018-09-08T00:53:51.581Z,13.10
2018-09-08T00:56:20.224Z,13.10
2018-09-08T00:58:54.243Z,13.10
2018-09-08T01:01:23.083Z,13.10
2018-09-08T01:03:54.809Z,13.00
2018-09-08T01:06:23.425Z,13.00
2018-09-08T01:08:52.085Z,13.00
2018-09-08T01:11:20.679Z,12.90
2018-09-08T01:13:49.423Z,12.90
2018-09-08T01:16:18.930Z,12.80
2018-09-08T01:18:47.597Z,12.80
2018-09-08T01:21:16.354Z,12.80
2018-09-08T01:23:52.830Z,12.70
2018-09-08T01:26:22.351Z,12.70
2018-09-08T01:28:52.110Z,12.70
2018-09-08T01:31:21.829Z,12.70
2018-09-08T01:33:50.676Z,12.80
2018-09-08T01:36:19.502Z,12.80
2018-09-08T01:38:48.991Z,12.70
2018-09-08T01:41:18.333Z,12.80
2018-09-08T01:43:47.057Z,12.80
2018-09-08T01:46:15.727Z,12.70
2018-09-08T01:48:44.406Z,12.70
2018-09-08T01:51:13.232Z,12.70
2018-09-08T01:53:41.915Z,12.70
2018-09-08T01:56:10.580Z,12.70
2018-09-08T01:58:39.191Z,12.60
2018-09-08T02:01:07.882Z,12.60
2018-09-08T02:03:36.538Z,12.60
2018-09-08T02:06:05.350Z,12.60
2018-09-08T02:08:33.996Z,12.60
2018-09-08T02:11:02.766Z,12.60
2018-09-08T02:13:31.423Z,12.60
2018-09-08T02:16:00.111Z,12.60
2018-09-08T02:18:28.771Z,12.50
2018-09-08T02:20:57.428Z,12.50
2018-09-08T02:23:26.126Z,12.50
2018-09-08T02:25:54.797Z,12.50
2018-09-08T02:28:23.542Z,12.40
2018-09-08T02:30:52.186Z,12.40
2018-09-08T02:33:20.893Z,12.30
2018-09-08T02:35:50.334Z,12.30
2018-09-08T02:38:18.955Z,12.30
2018-09-08T02:40:47.643Z,12.30
2018-09-08T02:43:16.334Z,12.30
2018-09-08T02:45:45.337Z,12.30
2018-09-08T02:48:13.975Z,12.20
2018-09-08T02:50:42.319Z,12.20
2018-09-08T02:53:11.872Z,12.20
2018-09-08T02:55:39.712Z,12.20
2018-09-08T02:58:07.142Z,12.20
2018-09-08T03:00:34.743Z,12.20
2018-09-08T03:03:02.189Z,12.10
2018-09-08T03:05:29.633Z,12.10
2018-09-08T03:07:57.075Z,12.10
2018-09-08T03:10:24.559Z,12.00
2018-09-08T03:12:51.969Z,12.00
2018-09-08T03:15:19.481Z,12.00
2018-09-08T03:17:46.939Z,11.90
2018-09-08T03:20:14.427Z,11.90
2018-09-08T03:22:41.950Z,11.90
2018-09-08T03:25:09.377Z,11.90
2018-09-08T03:27:36.860Z,11.80
2018-09-08T03:30:04.347Z,11.80
2018-09-08T03:32:31.745Z,11.80
2018-09-08T03:34:59.178Z,11.80
2018-09-08T03:37:26.668Z,11.70
2018-09-08T03:39:54.148Z,11.70
2018-09-08T03:42:21.615Z,11.60
2018-09-08T03:44:49.077Z,11.60
2018-09-08T03:47:16.548Z,11.60
2018-09-08T03:49:43.970Z,11.60
2018-09-08T03:52:11.455Z,11.60
2018-09-08T03:54:38.892Z,11.50
2018-09-08T03:57:06.309Z,11.50
2018-09-08T03:59:33.701Z,11.50
2018-09-08T04:02:01.231Z,11.50
2018-09-08T04:04:29.842Z,11.50
2018-09-08T04:06:58.491Z,11.40
2018-09-08T04:09:27.109Z,11.40
2018-09-08T04:11:55.770Z,11.40
2018-09-08T04:14:24.445Z,11.30
2018-09-08T04:16:53.032Z,11.30
2018-09-08T04:19:21.641Z,11.30
2018-09-08T04:21:50.271Z,11.30
2018-09-08T04:24:19.994Z,11.30
2018-09-08T04:26:48.704Z,11.20
2018-09-08T04:29:17.264Z,11.20
2018-09-08T04:31:45.953Z,11.20
2018-09-08T04:34:14.579Z,11.20
2018-09-08T04:36:43.253Z,11.20
2018-09-08T04:39:12.167Z,11.20
2018-09-08T04:41:40.851Z,11.20
2018-09-08T04:44:09.461Z,11.20
2018-09-08T04:46:38.103Z,11.20
2018-09-08T04:49:06.907Z,11.20
2018-09-08T04:51:35.584Z,11.20
2018-09-08T04:54:04.223Z,11.20
2018-09-08T04:56:32.852Z,11.20
2018-09-08T04:59:01.595Z,11.20
2018-09-08T05:01:30.325Z,11.30
2018-09-08T05:03:58.958Z,11.30
2018-09-08T05:06:27.516Z,11.30
2018-09-08T05:08:56.235Z,11.30
2018-09-08T05:11:24.972Z,11.40
2018-09-08T05:13:53.638Z,11.30
2018-09-08T05:16:22.333Z,11.30
2018-09-08T05:18:50.993Z,11.40
2018-09-08T05:21:19.615Z,11.40
2018-09-08T05:23:48.278Z,11.40
2018-09-08T05:26:17.327Z,11.40
2018-09-08T05:28:45.901Z,11.40
2018-09-08T05:31:14.615Z,11.50
2018-09-08T05:33:43.230Z,11.60
2018-09-08T05:36:12.196Z,11.70
2018-09-08T05:38:40.886Z,11.70
2018-09-08T05:41:09.563Z,11.80
2018-09-08T05:43:38.250Z,11.80
2018-09-08T05:46:06.904Z,11.90
2018-09-08T05:48:35.458Z,12.00
2018-09-08T05:51:04.062Z,12.10
2018-09-08T05:53:32.654Z,12.10
2018-09-08T05:56:01.223Z,12.10
2018-09-08T05:58:29.864Z,12.20
2018-09-08T06:00:58.513Z,12.20
2018-09-08T06:03:27.195Z,12.20
2018-09-08T06:05:55.775Z,12.30
2018-09-08T06:08:24.402Z,12.30
2018-09-08T06:10:53.030Z,12.30
2018-09-08T06:13:21.651Z,12.40
2018-09-08T06:15:50.365Z,12.40
2018-09-08T06:18:19.133Z,12.40
2018-09-08T06:20:47.661Z,12.40
2018-09-08T06:23:16.244Z,12.40
2018-09-08T06:25:44.858Z,12.30
2018-09-08T06:28:13.465Z,12.30
2018-09-08T06:30:42.118Z,12.40
2018-09-08T06:33:10.686Z,12.40
2018-09-08T06:35:39.311Z,12.50
2018-09-08T06:38:07.985Z,12.50
2018-09-08T06:40:37.613Z,12.60
2018-09-08T06:43:06.527Z,12.70
2018-09-08T06:45:35.129Z,12.80
2018-09-08T06:48:03.781Z,12.90
2018-09-08T06:50:32.313Z,12.90
2018-09-08T06:53:00.881Z,13.00
2018-09-08T06:55:29.496Z,13.00
2018-09-08T06:57:58.768Z,13.10
2018-09-08T07:00:27.325Z,13.10
2018-09-08T07:02:55.880Z,13.10
2018-09-08T07:05:24.481Z,13.20
2018-09-08T07:07:53.086Z,13.20
2018-09-08T07:10:21.710Z,13.30
2018-09-08T07:12:50.278Z,13.40
2018-09-08T07:15:18.932Z,13.50
2018-09-08T07:17:47.542Z,13.60
2018-09-08T07:20:16.090Z,13.70
2018-09-08T07:22:44.790Z,13.80
2018-09-08T07:25:13.501Z,13.90
2018-09-08T07:27:42.127Z,14.00
2018-09-08T07:30:10.806Z,14.00
2018-09-08T07:32:39.419Z,14.10
2018-09-08T07:35:07.985Z,14.10
2018-09-08T07:37:36.565Z,14.10
2018-09-08T07:40:05.237Z,14.20
2018-09-08T07:42:33.833Z,14.30
2018-09-08T07:45:02.385Z,14.30
2018-09-08T07:47:31.082Z,14.40
2018-09-08T07:49:59.732Z,14.50
2018-09-08T07:52:28.299Z,14.40
2018-09-08T07:54:56.880Z,14.50
2018-09-08T07:57:25.504Z,14.50
2018-09-08T07:59:54.208Z,14.60
2018-09-08T08:02:22.846Z,14.70
2018-09-08T08:04:51.562Z,14.90
2018-09-08T08:07:20.245Z,15.10
2018-09-08T08:09:48.849Z,15.30
2018-09-08T08:12:17.427Z,15.50
2018-09-08T08:14:46.075Z,15.50
2018-09-08T08:17:14.736Z,15.50
2018-09-08T08:19:43.329Z,15.60
2018-09-08T08:22:11.983Z,15.60
2018-09-08T08:24:40.621Z,15.60
2018-09-08T08:27:09.285Z,15.70
2018-09-08T08:29:37.995Z,15.80
2018-09-08T08:32:06.655Z,15.80
2018-09-08T08:34:35.305Z,15.90
2018-09-08T08:37:03.928Z,16.00
2018-09-08T08:39:32.606Z,16.10
2018-09-08T08:42:01.446Z,16.00
2018-09-08T08:44:30.188Z,16.10
2018-09-08T08:46:58.827Z,16.10
2018-09-08T08:49:27.629Z,16.10
2018-09-08T08:52:07.404Z,16.30
2018-09-08T08:54:54.598Z,16.40
2018-09-08T08:57:23.323Z,16.60
2018-09-08T08:59:51.992Z,16.80
2018-09-08T09:02:20.663Z,16.90
2018-09-08T09:04:49.372Z,17.10
2018-09-08T09:07:18.178Z,17.30
2018-09-08T09:09:46.847Z,17.40
2018-09-08T09:12:15.492Z,17.60
2018-09-08T09:14:44.200Z,17.60
2018-09-08T09:17:12.850Z,17.70
2018-09-08T09:19:52.803Z,17.90
2018-09-08T09:22:32.830Z,18.00
2018-09-08T09:25:10.810Z,18.30
2018-09-08T09:27:42.446Z,18.50
2018-09-08T09:30:11.528Z,18.60
2018-09-08T09:32:40.284Z,18.50
2018-09-08T09:35:10.522Z,18.40
2018-09-08T09:37:39.285Z,18.30
2018-09-08T09:40:08.511Z,18.20
2018-09-08T09:42:37.209Z,18.20
2018-09-08T09:45:06.137Z,18.30
2018-09-08T09:47:34.895Z,18.50
2018-09-08T09:50:03.603Z,18.60
2018-09-08T09:52:32.245Z,18.70
2018-09-08T09:55:01.184Z,18.70
2018-09-08T09:57:30.243Z,18.90
2018-09-08T09:59:58.993Z,18.90
2018-09-08T10:02:39.101Z,19.00
2018-09-08T10:05:14.801Z,19.10
2018-09-08T10:07:43.612Z,19.20
2018-09-08T10:10:28.708Z,19.40
2018-09-08T10:12:57.403Z,19.30
2018-09-08T10:15:26.352Z,19.20
2018-09-08T10:17:55.106Z,19.10
2018-09-08T10:20:24.375Z,19.10
2018-09-08T10:22:53.055Z,19.00
2018-09-08T10:25:21.864Z,18.90
2018-09-08T10:27:50.597Z,18.70
2018-09-08T10:30:19.452Z,18.90
2018-09-08T10:32:48.538Z,19.00
2018-09-08T10:35:17.265Z,19.30
2018-09-08T10:37:46.405Z,19.70
2018-09-08T10:40:15.182Z,19.90
2018-09-08T10:42:43.988Z,19.90
2018-09-08T10:45:12.750Z,19.90
2018-09-08T10:47:41.477Z,19.60
2018-09-08T10:50:14.807Z,19.70
2018-09-08T10:52:47.847Z,19.70
2018-09-08T10:55:16.673Z,19.80
2018-09-08T10:57:45.552Z,20.10
2018-09-08T11:00:15.914Z,20.20
2018-09-08T11:02:44.916Z,20.20
2018-09-08T11:05:13.430Z,20.20
2018-09-08T11:07:42.142Z,20.30
2018-09-08T11:10:10.780Z,20.30
2018-09-08T11:12:41.959Z,20.30
2018-09-08T11:15:16.311Z,20.30
2018-09-08T11:17:45.639Z,20.50
2018-09-08T11:20:14.502Z,20.60
2018-09-08T11:22:43.285Z,20.40
2018-09-08T11:25:13.356Z,20.30
2018-09-08T11:27:42.145Z,20.10
2018-09-08T11:30:10.888Z,19.80
2018-09-08T11:32:40.302Z,19.70
2018-09-08T11:35:08.956Z,19.60
2018-09-08T11:37:37.632Z,19.40
2018-09-08T11:40:06.376Z,19.40
2018-09-08T11:42:35.707Z,19.70
2018-09-08T11:45:04.570Z,20.00
2018-09-08T11:47:33.277Z,20.00
2018-09-08T11:50:01.945Z,20.00
2018-09-08T11:52:30.627Z,19.90
2018-09-08T11:54:59.289Z,19.90
2018-09-08T11:57:28.085Z,19.80
2018-09-08T11:59:56.722Z,19.80
2018-09-08T12:02:25.420Z,19.70
2018-09-08T12:04:54.766Z,19.70
2018-09-08T12:07:23.485Z,19.80
2018-09-08T12:09:52.165Z,19.80
2018-09-08T12:12:20.805Z,19.70
2018-09-08T12:14:50.543Z,19.90
2018-09-08T12:17:19.250Z,20.00
2018-09-08T12:19:47.975Z,19.90
2018-09-08T12:22:16.854Z,19.90
2018-09-08T12:24:45.325Z,19.60
2018-09-08T12:27:13.910Z,19.40
2018-09-08T12:29:42.633Z,19.30
2018-09-08T12:32:11.267Z,19.10
2018-09-08T12:34:39.906Z,19.00
2018-09-08T12:37:08.593Z,19.00
2018-09-08T12:39:37.180Z,19.20
2018-09-08T12:42:05.950Z,19.50
2018-09-08T12:44:34.663Z,19.70
2018-09-08T12:47:03.447Z,20.00
2018-09-08T12:49:33.113Z,20.20
2018-09-08T12:52:01.829Z,20.40
2018-09-08T12:54:30.439Z,20.30
2018-09-08T12:56:59.091Z,20.30
2018-09-08T12:59:28.144Z,20.30
2018-09-08T13:01:56.726Z,20.30
2018-09-08T13:04:25.407Z,20.40
2018-09-08T13:06:54.178Z,20.40
2018-09-08T13:09:22.798Z,20.50
2018-09-08T13:11:51.381Z,20.50
2018-09-08T13:14:20.017Z,20.70
2018-09-08T13:16:48.614Z,20.90
2018-09-08T13:19:17.359Z,21.00
2018-09-08T13:21:45.918Z,21.10
2018-09-08T13:24:14.617Z,21.10
2018-09-08T13:26:43.239Z,20.90
2018-09-08T13:29:11.945Z,20.80
2018-09-08T13:31:40.735Z,20.80
2018-09-08T13:34:09.548Z,20.70
2018-09-08T13:36:38.217Z,20.70
2018-09-08T13:39:07.983Z,20.60
2018-09-08T13:41:36.809Z,20.70
2018-09-08T13:44:05.569Z,20.60
2018-09-08T13:46:34.110Z,20.70
2018-09-08T13:49:02.764Z,20.70
2018-09-08T13:51:31.401Z,20.80
2018-09-08T13:54:00.162Z,20.90
2018-09-08T13:56:28.772Z,20.90
2018-09-08T13:58:57.359Z,20.80
2018-09-08T14:01:26.062Z,20.70
2018-09-08T14:03:54.802Z,20.60
2018-09-08T14:06:23.393Z,20.50
2018-09-08T14:08:52.045Z,20.50
2018-09-08T14:11:20.690Z,20.50
2018-09-08T14:13:49.422Z,20.60
2018-09-08T14:16:18.038Z,20.80
2018-09-08T14:18:46.679Z,20.90
2018-09-08T14:21:15.274Z,20.90
2018-09-08T14:23:43.887Z,20.80
2018-09-08T14:26:12.476Z,20.70
2018-09-08T14:28:42.167Z,20.60
2018-09-08T14:31:42.234Z,20.50
2018-09-08T14:34:10.914Z,20.50
2018-09-08T14:36:39.573Z,20.50
2018-09-08T14:39:09.086Z,20.60
2018-09-08T14:41:37.814Z,20.70
2018-09-08T14:44:06.898Z,20.80
2018-09-08T14:46:35.586Z,21.00
2018-09-08T14:49:04.296Z,21.10
2018-09-08T14:51:33.164Z,21.20
2018-09-08T14:54:01.860Z,21.30
2018-09-08T14:56:30.613Z,21.30
2018-09-08T14:58:59.361Z,21.60
2018-09-08T15:01:28.047Z,22.00
2018-09-08T15:03:56.831Z,22.00
2018-09-08T15:06:25.653Z,22.00
2018-09-08T15:08:55.229Z,22.00
2018-09-08T15:11:23.930Z,21.90
2018-09-08T15:13:52.639Z,21.70
2018-09-08T15:16:21.278Z,21.50
2018-09-08T15:18:50.022Z,21.30
2018-09-08T15:21:19.118Z,21.00
2018-09-08T15:23:48.597Z,20.80
2018-09-08T15:26:17.374Z,20.60
2018-09-08T15:28:46.189Z,20.50
2018-09-08T15:31:14.860Z,20.30
2018-09-08T15:33:43.635Z,20.30
2018-09-08T15:36:12.321Z,20.20
2018-09-08T15:38:40.949Z,20.00
2018-09-08T15:41:09.624Z,20.00
2018-09-08T15:43:38.342Z,19.90
2018-09-08T15:46:07.038Z,19.90
2018-09-08T15:48:35.799Z,19.90
2018-09-08T15:51:05.379Z,19.90
2018-09-08T15:53:35.119Z,19.80
2018-09-08T15:56:03.792Z,19.70
2018-09-08T15:58:32.622Z,19.70
2018-09-08T16:01:02.475Z,19.70
2018-09-08T16:03:31.184Z,19.60
2018-09-08T16:06:00.960Z,19.60
2018-09-08T16:08:29.676Z,19.50
2018-09-08T16:11:00.001Z,19.50
2018-09-08T16:13:28.915Z,19.50
2018-09-08T16:15:57.921Z,19.50
2018-09-08T16:18:26.824Z,19.50
2018-09-08T16:20:56.470Z,19.40
2018-09-08T16:23:25.308Z,19.40
2018-09-08T16:25:54.094Z,19.40
2018-09-08T16:28:22.934Z,19.40
2018-09-08T16:30:51.700Z,19.40
2018-09-08T16:33:20.369Z,19.40
2018-09-08T16:35:49.006Z,19.40
2018-09-08T16:38:17.873Z,19.30
2018-09-08T16:40:49.540Z,19.30
2018-09-08T16:43:18.285Z,19.30
2018-09-08T16:45:47.039Z,19.30
2018-09-08T16:48:15.704Z,19.30
2018-09-08T16:50:44.352Z,19.20
2018-09-08T16:53:13.040Z,19.20
2018-09-08T16:55:41.723Z,19.20
2018-09-08T16:58:10.432Z,19.10
2018-09-08T17:00:39.141Z,19.10
2018-09-08T17:03:08.728Z,19.00
2018-09-08T17:05:37.500Z,19.00
2018-09-08T17:08:07.004Z,19.00
2018-09-08T17:10:35.649Z,19.00
2018-09-08T17:13:04.359Z,18.90
2018-09-08T17:15:32.998Z,18.90
2018-09-08T17:18:02.039Z,18.90
2018-09-08T17:20:30.656Z,18.80
2018-09-08T17:22:59.421Z,18.80
2018-09-08T17:25:28.081Z,18.80
2018-09-08T17:27:57.687Z,18.70
2018-09-08T17:30:26.353Z,18.60
2018-09-08T17:32:54.947Z,18.60
2018-09-08T17:35:23.605Z,18.50
2018-09-08T17:37:52.280Z,18.50
2018-09-08T17:40:20.932Z,18.50
2018-09-08T17:42:49.541Z,18.40
2018-09-08T17:45:20.860Z,18.40
2018-09-08T17:47:49.525Z,18.40
2018-09-08T17:50:18.240Z,18.40
2018-09-08T17:52:47.554Z,18.30
2018-09-08T17:55:16.226Z,18.30
2018-09-08T17:57:44.901Z,18.20
2018-09-08T18:00:13.997Z,18.20
2018-09-08T18:02:43.195Z,18.20
2018-09-08T18:05:12.396Z,18.20
2018-09-08T18:07:40.993Z,18.10
2018-09-08T18:10:10.139Z,18.10
2018-09-08T18:12:38.724Z,18.10
2018-09-08T18:15:08.072Z,18.00
2018-09-08T18:17:36.829Z,18.00
2018-09-08T18:20:05.960Z,18.00
2018-09-08T18:22:35.396Z,18.00
2018-09-08T18:25:04.156Z,17.90
2018-09-08T18:27:32.791Z,17.80
2018-09-08T18:30:01.403Z,17.70
2018-09-08T18:32:30.169Z,17.60
2018-09-08T18:34:58.815Z,17.50
2018-09-08T18:37:27.455Z,17.50
2018-09-08T18:39:56.519Z,17.40
2018-09-08T18:42:25.161Z,17.30
2018-09-08T18:44:53.825Z,17.30
2018-09-08T18:47:22.463Z,17.20
2018-09-08T18:49:51.107Z,17.20
2018-09-08T18:52:19.741Z,17.10
2018-09-08T18:54:48.362Z,17.00
2018-09-08T18:57:17.045Z,16.90
2018-09-08T18:59:45.654Z,16.90
2018-09-08T19:02:14.244Z,16.80
2018-09-08T19:04:42.822Z,16.80
2018-09-08T19:07:11.496Z,16.70
2018-09-08T19:09:40.164Z,16.80
2018-09-08T19:12:08.758Z,16.80
2018-09-08T19:14:42.770Z,16.80
2018-09-08T19:17:11.366Z,16.80
2018-09-08T19:19:39.933Z,16.70
2018-09-08T19:22:08.546Z,16.70
2018-09-08T19:24:43.236Z,16.60
2018-09-08T19:27:12.619Z,16.60
2018-09-08T19:29:47.810Z,16.50
2018-09-08T19:32:16.883Z,16.50
2018-09-08T19:34:49.717Z,16.40
2018-09-08T19:37:18.363Z,16.40
2018-09-08T19:39:47.045Z,16.40
2018-09-08T19:42:15.604Z,16.40
2018-09-08T19:44:44.681Z,16.40
2018-09-08T19:47:18.538Z,16.40
2018-09-08T19:49:47.238Z,16.40
2018-09-08T19:52:21.215Z,16.40
2018-09-08T19:54:49.932Z,16.40
2018-09-08T19:57:23.826Z,16.40
2018-09-08T19:59:52.459Z,16.40
2018-09-08T20:02:21.069Z,16.30
2018-09-08T20:04:49.671Z,16.30
2018-09-08T20:07:18.420Z,16.30
2018-09-08T20:09:47.134Z,16.30
2018-09-08T20:12:15.971Z,16.30
2018-09-08T20:14:44.559Z,16.30
2018-09-08T20:17:13.160Z,16.30
2018-09-08T20:19:41.917Z,16.30
2018-09-08T20:22:11.471Z,16.30
2018-09-08T20:24:40.133Z,16.30
2018-09-08T20:27:08.776Z,16.30
2018-09-08T20:29:37.398Z,16.20
2018-09-08T20:32:06.047Z,16.20
2018-09-08T20:34:34.690Z,16.20
2018-09-08T20:37:03.374Z,16.20
2018-09-08T20:39:32.059Z,16.20
2018-09-08T20:42:00.932Z,16.20
2018-09-08T20:44:29.514Z,16.20
2018-09-08T20:46:58.228Z,16.20
2018-09-08T20:49:26.930Z,16.10
2018-09-08T20:51:55.626Z,16.10
2018-09-08T20:54:24.356Z,16.10
2018-09-08T20:56:52.994Z,16.10
2018-09-08T20:59:21.628Z,16.00
2018-09-08T21:01:50.289Z,16.00
2018-09-08T21:04:18.935Z,16.00
2018-09-08T21:06:47.517Z,16.00
2018-09-08T21:09:16.143Z,15.90
2018-09-08T21:11:44.737Z,15.90
2018-09-08T21:14:13.385Z,15.90
2018-09-08T21:16:42.052Z,15.90
2018-09-08T21:19:10.668Z,15.80
2018-09-08T21:21:39.350Z,15.80
2018-09-08T21:24:08.026Z,15.70
2018-09-08T21:26:36.631Z,15.70
2018-09-08T21:29:05.504Z,15.70
2018-09-08T21:31:34.126Z,15.70
2018-09-08T21:34:02.815Z,15.70
2018-09-08T21:36:31.396Z,15.70
2018-09-08T21:38:59.975Z,15.60
2018-09-08T21:41:28.504Z,15.50
2018-09-08T21:43:57.168Z,15.50
2018-09-08T21:46:25.873Z,15.50
2018-09-08T21:48:54.454Z,15.50
2018-09-08T21:51:23.029Z,15.40
2018-09-08T21:53:51.691Z,15.40
2018-09-08T21:56:20.278Z,15.30
2018-09-08T21:58:49.000Z,15.30
2018-09-08T22:01:22.957Z,15.20
2018-09-08T22:03:51.724Z,15.10
2018-09-08T22:06:20.515Z,15.20
2018-09-08T22:08:49.249Z,15.10
2018-09-08T22:11:18.017Z,15.10
2018-09-08T22:13:46.766Z,15.00
2018-09-08T22:16:15.593Z,15.00
2018-09-08T22:18:44.239Z,15.00
2018-09-08T22:21:12.900Z,14.90
2018-09-08T22:23:41.605Z,14.80
2018-09-08T22:26:10.208Z,14.80
2018-09-08T22:28:38.812Z,14.80
2018-09-08T22:31:07.560Z,14.80
2018-09-08T22:33:36.183Z,14.80
2018-09-08T22:36:04.808Z,14.80
2018-09-08T22:38:33.395Z,14.80
2018-09-08T22:41:02.045Z,14.80
2018-09-08T22:43:30.738Z,14.80
2018-09-08T22:45:59.410Z,14.70
2018-09-08T22:48:27.987Z,14.70
2018-09-08T22:50:56.605Z,14.70
2018-09-08T22:53:25.191Z,14.60
2018-09-08T22:55:53.860Z,14.60
2018-09-08T22:58:22.517Z,14.60
2018-09-08T23:00:51.198Z,14.60
2018-09-08T23:03:20.436Z,14.50
2018-09-08T23:05:49.048Z,14.50
2018-09-08T23:08:17.698Z,14.50
2018-09-08T23:10:46.380Z,14.40
2018-09-08T23:13:15.072Z,14.40
2018-09-08T23:15:43.800Z,14.50
2018-09-08T23:18:12.444Z,14.50
2018-09-08T23:20:41.038Z,14.50
2018-09-08T23:23:09.753Z,14.50
2018-09-08T23:25:38.406Z,14.50
2018-09-08T23:28:07.044Z,14.50
2018-09-08T23:30:35.683Z,14.50
2018-09-08T23:33:04.311Z,14.50
2018-09-08T23:35:32.911Z,14.50
2018-09-08T23:38:01.472Z,14.60
2018-09-08T23:40:30.155Z,14.60
2018-09-08T23:42:58.772Z,14.60
2018-09-08T23:45:27.370Z,14.60
2018-09-08T23:47:56.046Z,14.70
2018-09-08T23:50:24.785Z,14.70
2018-09-08T23:52:53.465Z,14.70
2018-09-08T23:55:22.107Z,14.70
2018-09-08T23:57:50.799Z,14.70
